Dades meteomassalio
Diari Summary for Setembre 12, 2017 Units:  English    Metric   Both
« Previous Day
Next Day »
Diari Semanal Mensual Anual Personalitzat
  Maxima: Minima: Mijana:
Temperatura: TemperatureC °F 12.2 °F 18.7 °F
Rosada: DewpointC °F 2.9 °F 9.7 °F
Humitat: Humidity % 38 % 57 %
Velocitat del vent: WindSpeedKMH mph 0.0 mph 20.9 mph
Racha vent: WindSpeedGustKMH mph - -
Vent:- - SW
Pressio: PressurehPa in 1015.1 in -
Pluja: 0.0 in    
Historical Graphs
 
 
Tabular Data for Setembre 12, 2017
Time Temperature Dew Point Pressure Wind Wind Speed Wind Gust Humidity Rainfall Rate (Hourly) solar Conditions
TemperatureC °F DewpointC °F PressurehPa in Calm     Humidity % HourlyPrecipMM in SolarRadiationWatts/m^2 W/m2 Conditions
00:01 18.9 °F 11.2 °F 1015.5 in SSW 16.7 mph 16.7 mph 61 % 0.0 in 0.0 W/m2 CLR
00:02 18.9 °F 11.2 °F 1015.1 in SSW 14.8 mph 14.8 mph 61 % 0.0 in 0.0 W/m2 CLR
00:07 18.9 °F 11.4 °F 1015.1 in SSW 18.5 mph 18.5 mph 62 % 0.0 in 0.0 W/m2 CLR
00:12 18.3 °F 10.9 °F 1015.1 in SSW 17.7 mph 17.7 mph 62 % 0.0 in 0.0 W/m2 CLR
00:17 18.9 °F 11.4 °F 1015.5 in SSW 18.5 mph 18.5 mph 62 % 0.0 in 0.0 W/m2 CLR
00:22 18.9 °F 11.4 °F 1015.1 in SSW 25.9 mph 25.9 mph 62 % 0.0 in 0.0 W/m2 CLR
00:27 18.9 °F 11.7 °F 1015.1 in SW 16.7 mph 16.7 mph 63 % 0.0 in 0.0 W/m2 CLR
00:32 18.3 °F 11.2 °F 1015.5 in SW 18.5 mph 18.5 mph 63 % 0.0 in 0.0 W/m2 CLR
00:37 18.3 °F 11.2 °F 1015.5 in SW 16.7 mph 16.7 mph 63 % 0.0 in 0.0 W/m2 CLR
00:42 18.3 °F 11.2 °F 1015.5 in SSW 14.8 mph 14.8 mph 63 % 0.0 in 0.0 W/m2 CLR
00:47 18.3 °F 11.4 °F 1015.5 in SSW 18.5 mph 18.5 mph 64 % 0.0 in 0.0 W/m2 CLR
00:52 18.3 °F 11.4 °F 1015.5 in SSW 14.8 mph 14.8 mph 64 % 0.0 in 0.0 W/m2 CLR
00:57 18.3 °F 11.4 °F 1015.5 in SSW 18.5 mph 18.5 mph 64 % 0.0 in 0.0 W/m2 CLR
01:02 17.8 °F 10.9 °F 1015.5 in SSW 14.8 mph 14.8 mph 64 % 0.0 in 0.0 W/m2 CLR
01:07 17.8 °F 10.9 °F 1015.5 in SSW 16.7 mph 16.7 mph 64 % 0.0 in 0.0 W/m2 CLR
01:12 17.8 °F 11.1 °F 1015.5 in SSW 18.5 mph 18.5 mph 65 % 0.0 in 0.0 W/m2 CLR
01:17 17.8 °F 11.1 °F 1015.5 in SSW 18.5 mph 18.5 mph 65 % 0.0 in 0.0 W/m2 CLR
01:22 17.8 °F 11.1 °F 1015.8 in SSW 16.7 mph 16.7 mph 65 % 0.0 in 0.0 W/m2 CLR
01:27 17.8 °F 11.1 °F 1015.8 in SW 14.5 mph 14.5 mph 65 % 0.0 in 0.0 W/m2 CLR
01:32 17.8 °F 11.3 °F 1015.8 in SSW 9.3 mph 9.3 mph 66 % 0.0 in 0.0 W/m2 CLR
01:37 17.2 °F 10.8 °F 1015.8 in SSW 18.5 mph 18.5 mph 66 % 0.0 in 0.0 W/m2 CLR
01:42 17.2 °F 10.8 °F 1015.8 in South 16.7 mph 16.7 mph 66 % 0.0 in 0.0 W/m2 CLR
01:47 17.2 °F 10.8 °F 1015.8 in South 13.0 mph 13.0 mph 66 % 0.0 in 0.0 W/m2 CLR
01:52 16.7 °F 10.5 °F 1016.1 in SW 13.0 mph 13.0 mph 67 % 0.0 in 0.0 W/m2 CLR
01:57 16.7 °F 10.5 °F 1016.1 in SSW 16.7 mph 16.7 mph 67 % 0.0 in 0.0 W/m2 CLR
02:02 16.7 °F 10.5 °F 1016.1 in SSW 14.5 mph 14.5 mph 67 % 0.0 in 0.0 W/m2 CLR
02:07 16.7 °F 10.5 °F 1016.1 in SSW 25.9 mph 25.9 mph 67 % 0.0 in 0.0 W/m2 CLR
02:13 16.7 °F 10.5 °F 1016.1 in SW 22.2 mph 22.2 mph 67 % 0.0 in 0.0 W/m2 CLR
02:18 16.7 °F 10.5 °F 1016.1 in SW 7.4 mph 7.4 mph 67 % 0.0 in 0.0 W/m2 CLR
02:23 17.2 °F 11.3 °F 1016.1 in SSW 14.8 mph 14.8 mph 68 % 0.0 in 0.0 W/m2 CLR
02:28 16.7 °F 10.7 °F 1016.1 in SSW 17.7 mph 17.7 mph 68 % 0.0 in 0.0 W/m2 CLR
02:33 16.7 °F 10.7 °F 1016.5 in SW 14.8 mph 14.8 mph 68 % 0.0 in 0.0 W/m2 CLR
02:38 17.2 °F 11.3 °F 1016.5 in SSW 9.7 mph 9.7 mph 68 % 0.0 in 0.0 W/m2 CLR
02:43 16.7 °F 10.7 °F 1016.5 in SSW 7.4 mph 7.4 mph 68 % 0.0 in 0.0 W/m2 CLR
02:48 16.7 °F 10.7 °F 1016.5 in SSW 14.8 mph 14.8 mph 68 % 0.0 in 0.0 W/m2 CLR
02:53 16.7 °F 10.7 °F 1016.5 in SSW 14.8 mph 14.8 mph 68 % 0.0 in 0.0 W/m2 CLR
02:58 16.7 °F 10.7 °F 1016.5 in SSW 16.7 mph 16.7 mph 68 % 0.0 in 0.0 W/m2 CLR
03:03 16.7 °F 10.9 °F 1016.5 in SSW 13.0 mph 13.0 mph 69 % 0.0 in 0.0 W/m2 CLR
03:08 16.7 °F 10.9 °F 1016.5 in SSW 18.5 mph 18.5 mph 69 % 0.0 in 0.0 W/m2 CLR
03:13 17.2 °F 11.5 °F 1016.5 in SSW 20.4 mph 20.4 mph 69 % 0.0 in 0.0 W/m2 CLR
03:18 17.2 °F 11.5 °F 1016.5 in SW 14.5 mph 14.5 mph 69 % 0.0 in 0.0 W/m2 CLR
03:23 17.2 °F 11.5 °F 1016.5 in SSW 16.7 mph 16.7 mph 69 % 0.0 in 0.0 W/m2 CLR
03:28 17.2 °F 11.5 °F 1016.5 in SW 11.1 mph 11.1 mph 69 % 0.0 in 0.0 W/m2 CLR
03:33 17.2 °F 11.5 °F 1016.5 in South 14.8 mph 14.8 mph 69 % 0.0 in 0.0 W/m2 CLR
03:38 17.2 °F 11.5 °F 1016.5 in SSW 13.0 mph 13.0 mph 69 % 0.0 in 0.0 W/m2 CLR
03:43 17.2 °F 11.5 °F 1016.5 in SSW 18.5 mph 18.5 mph 69 % 0.0 in 0.0 W/m2 CLR
03:48 17.2 °F 11.5 °F 1016.5 in South 16.7 mph 16.7 mph 69 % 0.0 in 0.0 W/m2 CLR
03:53 17.2 °F 11.5 °F 1016.8 in SW 14.8 mph 14.8 mph 69 % 0.0 in 0.0 W/m2 CLR
03:58 17.2 °F 11.5 °F 1016.8 in South 18.5 mph 18.5 mph 69 % 0.0 in 0.0 W/m2 CLR
04:03 17.2 °F 11.5 °F 1016.8 in SW 22.5 mph 22.5 mph 69 % 0.0 in 0.0 W/m2 CLR
04:08 17.2 °F 11.5 °F 1016.5 in SSW 22.5 mph 22.5 mph 69 % 0.0 in 0.0 W/m2 CLR
04:13 17.2 °F 11.5 °F 1016.8 in South 17.7 mph 17.7 mph 69 % 0.0 in 0.0 W/m2 CLR
04:18 17.2 °F 11.5 °F 1016.5 in South 22.2 mph 22.2 mph 69 % 0.0 in 0.0 W/m2 CLR
04:23 17.2 °F 11.5 °F 1016.5 in SSW 27.8 mph 27.8 mph 69 % 0.0 in 0.0 W/m2 CLR
04:28 17.2 °F 11.5 °F 1016.5 in SSW 14.8 mph 14.8 mph 69 % 0.0 in 0.0 W/m2 CLR
04:33 17.2 °F 11.5 °F 1016.5 in SW 18.5 mph 18.5 mph 69 % 0.0 in 0.0 W/m2 CLR
04:38 17.2 °F 11.5 °F 1016.8 in SSW 16.7 mph 16.7 mph 69 % 0.0 in 0.0 W/m2 CLR
04:43 17.2 °F 11.5 °F 1016.8 in South 18.5 mph 18.5 mph 69 % 0.0 in 0.0 W/m2 CLR
04:48 17.2 °F 11.5 °F 1016.8 in SSW 16.7 mph 16.7 mph 69 % 0.0 in 0.0 W/m2 CLR
04:53 17.2 °F 11.5 °F 1016.8 in SSW 22.2 mph 22.2 mph 69 % 0.0 in 0.0 W/m2 CLR
04:58 17.2 °F 11.5 °F 1016.8 in SW 20.9 mph 20.9 mph 69 % 0.0 in 0.0 W/m2 CLR
05:03 17.2 °F 11.5 °F 1016.8 in SSW 22.5 mph 22.5 mph 69 % 0.0 in 0.0 W/m2 CLR
05:08 17.2 °F 11.5 °F 1016.8 in SW 22.2 mph 22.2 mph 69 % 0.0 in 0.0 W/m2 CLR
05:14 17.2 °F 11.5 °F 1017.2 in SW 22.2 mph 22.2 mph 69 % 0.0 in 0.0 W/m2 CLR
05:19 17.2 °F 11.5 °F 1016.8 in SW 18.5 mph 18.5 mph 69 % 0.0 in 0.0 W/m2 CLR
05:22 17.2 °F 11.5 °F 1016.8 in SSW 22.5 mph 22.5 mph 69 % 0.0 in 0.0 W/m2 CLR
05:27 17.2 °F 11.5 °F 1016.8 in SW 24.1 mph 24.1 mph 69 % 0.0 in 0.0 W/m2 CLR
05:32 16.7 °F 10.9 °F 1016.8 in SW 22.2 mph 22.2 mph 69 % 0.0 in 0.0 W/m2 CLR
05:37 16.7 °F 10.9 °F 1016.8 in SW 16.1 mph 16.1 mph 69 % 0.0 in 0.0 W/m2 CLR
05:42 16.7 °F 10.9 °F 1017.2 in SW 18.5 mph 18.5 mph 69 % 0.0 in 0.0 W/m2 CLR
05:47 16.7 °F 10.9 °F 1016.8 in SW 18.5 mph 18.5 mph 69 % 0.0 in 0.0 W/m2 CLR
05:52 16.7 °F 10.9 °F 1016.8 in SSW 16.7 mph 16.7 mph 69 % 0.0 in 0.0 W/m2 CLR
05:57 16.7 °F 10.9 °F 1016.8 in SW 16.7 mph 16.7 mph 69 % 0.0 in 0.0 W/m2 CLR
06:02 16.7 °F 10.9 °F 1016.8 in SW 16.7 mph 16.7 mph 69 % 0.0 in 0.0 W/m2 CLR
06:07 16.7 °F 10.9 °F 1016.8 in SSW 18.5 mph 18.5 mph 69 % 0.0 in 0.0 W/m2 CLR
06:12 16.1 °F 10.4 °F 1016.8 in SW 16.7 mph 16.7 mph 69 % 0.0 in 0.0 W/m2 CLR
06:14 16.1 °F 10.4 °F 1017.2 in SSW 16.7 mph 16.7 mph 69 % 0.0 in 0.0 W/m2 CLR
06:19 16.1 °F 10.4 °F 1016.8 in SSW 5.6 mph   69 % 0.0 in 0.0 W/m2 CLR
06:24 16.1 °F 10.6 °F 1016.8 in SSW 9.3 mph 9.3 mph 70 % 0.0 in 0.0 W/m2 CLR
06:29 16.1 °F 10.6 °F 1017.2 in SSW 13.0 mph 13.0 mph 70 % 0.0 in 0.0 W/m2 CLR
06:34 15.6 °F 10.1 °F 1017.2 in SSW 18.5 mph 18.5 mph 70 % 0.0 in 0.0 W/m2 CLR
06:39 15.6 °F 10.3 °F 1017.2 in SSW 20.4 mph 20.4 mph 71 % 0.0 in 0.0 W/m2 CLR
06:44 15.6 °F 10.3 °F 1017.2 in SW 16.7 mph 16.7 mph 71 % 0.0 in 0.0 W/m2 CLR
06:49 15.6 °F 10.5 °F 1017.2 in South 24.1 mph 24.1 mph 72 % 0.0 in 0.0 W/m2 CLR
06:54 15.6 °F 10.5 °F 1017.2 in SSW 18.5 mph 18.5 mph 72 % 0.0 in 0.0 W/m2 CLR
06:59 15.6 °F 10.5 °F 1017.2 in SSW 18.5 mph 18.5 mph 72 % 0.0 in 0.0 W/m2 CLR
07:04 15.6 °F 10.5 °F 1017.2 in SSW 13.0 mph 13.0 mph 72 % 0.0 in 0.0 W/m2 CLR
07:09 15.6 °F 10.5 °F 1017.2 in SSW 16.7 mph 16.7 mph 72 % 0.0 in 0.0 W/m2 CLR
07:14 15.6 °F 10.5 °F 1017.5 in SSW 13.0 mph 13.0 mph 72 % 0.0 in 0.0 W/m2 CLR
07:19 15.6 °F 10.5 °F 1017.5 in South 14.5 mph 14.5 mph 72 % 0.0 in 0.0 W/m2 CLR
07:21 15.6 °F 10.5 °F 1017.5 in SSW 16.7 mph 16.7 mph 72 % 0.0 in 0.0 W/m2 CLR
07:26 15.6 °F 10.5 °F 1017.5 in South 14.8 mph 14.8 mph 72 % 0.0 in 0.0 W/m2 CLR
07:31 15.6 °F 10.5 °F 1017.5 in SSW 18.5 mph 18.5 mph 72 % 0.0 in 0.0 W/m2 OVC
07:36 15.6 °F 10.5 °F 1017.5 in SSW 24.1 mph 24.1 mph 72 % 0.0 in 5.0 W/m2 OVC
07:41 15.6 °F 10.5 °F 1017.5 in SW 14.8 mph 14.8 mph 72 % 0.0 in 5.0 W/m2 OVC
07:46 15.6 °F 10.5 °F 1017.5 in SSW 24.1 mph 24.1 mph 72 % 0.0 in 7.0 W/m2 BKN
07:51 15.6 °F 10.5 °F 1017.5 in SSW 16.7 mph 16.7 mph 72 % 0.0 in 12.0 W/m2 BKN
07:56 15.6 °F 10.5 °F 1017.5 in SSW 20.4 mph 20.4 mph 72 % 0.0 in 16.0 W/m2 BKN
08:01 15.6 °F 10.5 °F 1017.5 in SSW 19.3 mph 19.3 mph 72 % 0.0 in 18.0 W/m2 BKN
08:06 15.6 °F 10.3 °F 1017.8 in South 18.5 mph 18.5 mph 71 % 0.0 in 18.0 W/m2 BKN
08:11 16.1 °F 10.8 °F 1017.8 in SSW 22.2 mph 22.2 mph 71 % 0.0 in 21.0 W/m2 BKN
08:16 16.1 °F 10.8 °F 1017.8 in South 18.5 mph 18.5 mph 71 % 0.0 in 28.0 W/m2 BKN
08:21 16.1 °F 10.8 °F 1017.8 in SSW 18.5 mph 18.5 mph 71 % 0.0 in 32.0 W/m2 BKN
08:26 16.1 °F 10.6 °F 1017.8 in South 16.7 mph 16.7 mph 70 % 0.0 in 37.0 W/m2 BKN
08:31 16.1 °F 10.6 °F 1017.8 in SSW 20.4 mph 20.4 mph 70 % 0.0 in 33.0 W/m2 BKN
08:36 16.1 °F 10.6 °F 1018.2 in South 18.5 mph 18.5 mph 70 % 0.0 in 28.0 W/m2 BKN
08:41 16.1 °F 10.6 °F 1018.2 in South 22.2 mph 22.2 mph 70 % 0.0 in 33.0 W/m2 BKN
08:46 16.1 °F 10.6 °F 1017.8 in South 14.8 mph 14.8 mph 70 % 0.0 in 58.0 W/m2 BKN
08:51 16.1 °F 10.6 °F 1018.2 in SSW 18.5 mph 18.5 mph 70 % 0.0 in 88.0 W/m2 SCT
08:56 16.1 °F 10.6 °F 1018.2 in South 18.5 mph 18.5 mph 70 % 0.0 in 102.0 W/m2 CLR
09:01 16.1 °F 10.4 °F 1018.2 in South 18.5 mph 18.5 mph 69 % 0.0 in 67.0 W/m2 CLR
09:06 16.1 °F 10.4 °F 1018.5 in SSW 20.4 mph 20.4 mph 69 % 0.0 in 40.0 W/m2 FEW
09:11 16.1 °F 10.4 °F 1018.2 in SSW 20.4 mph 20.4 mph 69 % 0.0 in 49.0 W/m2 SCT
09:16 16.1 °F 10.4 °F 1018.2 in SSW 14.8 mph 14.8 mph 69 % 0.0 in 77.0 W/m2 SCT
09:21 16.7 °F 10.9 °F 1018.5 in SSW 18.5 mph 18.5 mph 69 % 0.0 in 105.0 W/m2 FEW
09:26 16.7 °F 10.7 °F 1018.5 in SSW 19.3 mph 19.3 mph 68 % 0.0 in 135.0 W/m2 CLR
09:27 16.7 °F 10.7 °F 1018.5 in SSW 24.1 mph 24.1 mph 68 % 0.0 in 144.0 W/m2 CLR
09:32 16.7 °F 10.5 °F 1018.8 in SSW 22.5 mph 22.5 mph 67 % 0.0 in 125.0 W/m2 CLR
09:37 17.2 °F 11.1 °F 1018.8 in SSW 19.3 mph 19.3 mph 67 % 0.0 in 74.0 W/m2 CLR
09:42 16.7 °F 10.5 °F 1018.8 in SW 14.5 mph 14.5 mph 67 % 0.0 in 81.0 W/m2 FEW
09:47 16.7 °F 10.5 °F 1018.8 in SSW 20.4 mph 20.4 mph 67 % 0.0 in 97.0 W/m2 FEW
09:52 16.7 °F 10.5 °F 1019.2 in SSW 18.5 mph 18.5 mph 67 % 0.0 in 114.0 W/m2 CLR
09:57 17.2 °F 11.1 °F 1019.2 in SSW 27.8 mph 27.8 mph 67 % 0.0 in 120.0 W/m2 CLR
10:02 17.2 °F 11.1 °F 1019.2 in SW 18.5 mph 18.5 mph 67 % 0.0 in 146.0 W/m2 CLR
10:07 17.2 °F 11.1 °F 1019.2 in SW 18.5 mph 18.5 mph 67 % 0.0 in 153.0 W/m2 CLR
10:12 17.2 °F 10.8 °F 1019.5 in SW 25.9 mph 25.9 mph 66 % 0.0 in 234.0 W/m2 CLR
10:17 17.8 °F 11.3 °F 1019.5 in SSW 16.7 mph 16.7 mph 66 % 0.0 in 285.0 W/m2 CLR
10:22 17.8 °F 11.1 °F 1019.5 in SW 25.9 mph 25.9 mph 65 % 0.0 in 236.0 W/m2 CLR
10:27 17.8 °F 11.1 °F 1019.5 in West 22.5 mph 22.5 mph 65 % 0.0 in 151.0 W/m2 CLR
10:32 17.8 °F 10.9 °F 1019.2 in WSW 20.9 mph 20.9 mph 64 % 0.0 in 214.0 W/m2 CLR
10:37 17.8 °F 10.9 °F 1019.5 in WSW 18.5 mph 18.5 mph 64 % 0.0 in 197.0 W/m2 CLR
10:42 18.3 °F 10.9 °F 1019.5 in WSW 29.6 mph 29.6 mph 62 % 0.0 in 195.0 W/m2 CLR
10:47 18.3 °F 11.2 °F 1019.5 in SW 20.4 mph 20.4 mph 63 % 0.0 in 207.0 W/m2 CLR
10:52 18.3 °F 10.9 °F 1019.5 in WSW 18.5 mph 18.5 mph 62 % 0.0 in 158.0 W/m2 CLR
10:57 18.3 °F 10.9 °F 1019.9 in WSW 24.1 mph 24.1 mph 62 % 0.0 in 135.0 W/m2 CLR
11:02 18.3 °F 10.9 °F 1020.2 in WSW 27.8 mph 27.8 mph 62 % 0.0 in 172.0 W/m2 CLR
11:07 18.3 °F 10.9 °F 1019.9 in SW 18.5 mph 18.5 mph 62 % 0.0 in 195.0 W/m2 CLR
11:12 18.3 °F 10.7 °F 1019.9 in WSW 22.5 mph 22.5 mph 61 % 0.0 in 197.0 W/m2 CLR
11:17 18.3 °F 10.9 °F 1019.9 in South 24.1 mph 24.1 mph 62 % 0.0 in 248.0 W/m2 CLR
11:22 18.3 °F 10.7 °F 1020.2 in SW 32.2 mph 32.2 mph 61 % 0.0 in 255.0 W/m2 CLR
11:27 18.3 °F 10.7 °F 1020.2 in SW 25.9 mph 25.9 mph 61 % 0.0 in 327.0 W/m2 CLR
11:32 18.9 °F 11.2 °F 1020.2 in SW 24.1 mph 24.1 mph 61 % 0.0 in 288.0 W/m2 CLR
11:37 18.9 °F 10.9 °F 1020.2 in SW 27.8 mph 27.8 mph 60 % 0.0 in 294.0 W/m2 CLR
11:42 18.9 °F 10.9 °F 1020.2 in WSW 25.9 mph 25.9 mph 60 % 0.0 in 582.0 W/m2 CLR
11:52 18.9 °F 10.4 °F 1019.9 in SSW 31.5 mph 31.5 mph 58 % 0.0 in 216.0 W/m2 CLR
11:57 18.9 °F 10.4 °F 1019.9 in SW 32.2 mph 32.2 mph 58 % 0.0 in 279.0 W/m2 CLR
12:02 19.4 °F 10.9 °F 1020.2 in SW 27.8 mph 27.8 mph 58 % 0.0 in 378.0 W/m2 CLR
12:03 19.4 °F 10.9 °F 1020.2 in SW 25.9 mph 25.9 mph 58 % 0.0 in 378.0 W/m2 CLR
12:08 20.0 °F 10.9 °F 1020.2 in SW 35.4 mph 35.4 mph 56 % 0.0 in 378.0 W/m2 CLR
12:13 20.6 °F 10.9 °F 1020.2 in SSW 40.7 mph 40.7 mph 54 % 0.0 in 243.0 W/m2 CLR
12:18 20.0 °F 10.7 °F 1020.2 in WSW 29.0 mph 29.0 mph 55 % 0.0 in 366.0 W/m2 CLR
12:23 20.0 °F 10.4 °F 1020.2 in SW 27.4 mph 28.2 mph 54 % 0.0 in 341.0 W/m2 CLR
12:28 20.0 °F 10.4 °F 1020.2 in WSW 29.6 mph 29.6 mph 54 % 0.0 in 262.0 W/m2 CLR
12:29 20.0 °F 10.4 °F 1020.2 in West 29.6 mph 29.6 mph 54 % 0.0 in 262.0 W/m2 CLR
12:34 20.0 °F 10.4 °F 1020.2 in SW 27.8 mph 27.8 mph 54 % 0.0 in 348.0 W/m2 CLR
12:39 21.1 °F 11.4 °F 1020.2 in SW 35.4 mph 35.4 mph 54 % 0.0 in 575.0 W/m2 CLR
12:44 21.1 °F 10.9 °F 1020.2 in WSW 35.4 mph 35.4 mph 52 % 0.0 in 283.0 W/m2 CLR
12:50 20.6 °F 10.1 °F 1020.2 in WSW 40.7 mph 40.7 mph 51 % 0.0 in 243.0 W/m2 CLR
12:55 20.6 °F 10.7 °F 1019.9 in SW 33.3 mph 33.3 mph 53 % 0.0 in 302.0 W/m2 CLR
13:00 20.6 °F 10.7 °F 1019.9 in WSW 37.0 mph 37.0 mph 53 % 0.0 in 896.0 W/m2 CLR
13:05 21.1 °F 11.2 °F 1019.9 in WSW 31.5 mph 31.5 mph 53 % 0.0 in 896.0 W/m2 CLR
13:10 21.1 °F 10.9 °F 1019.9 in WSW 35.2 mph 35.2 mph 52 % 0.0 in 229.0 W/m2 CLR
13:15 22.2 °F 11.6 °F 1019.9 in SW 31.5 mph 31.5 mph 51 % 0.0 in 983.0 W/m2 CLR
13:20 22.2 °F 11.0 °F 1019.9 in WSW 32.2 mph 32.2 mph 49 % 0.0 in 378.0 W/m2 CLR
13:25 21.1 °F 10.6 °F 1019.9 in West 25.9 mph 25.9 mph 51 % 0.0 in 867.0 W/m2 CLR
13:30 21.7 °F 10.8 °F 1019.9 in SW 29.6 mph 29.6 mph 50 % 0.0 in 540.0 W/m2 CLR
13:35 21.7 °F 10.8 °F 1019.9 in SW 27.8 mph 27.8 mph 50 % 0.0 in 891.0 W/m2 CLR
13:40 22.8 °F 11.5 °F 1019.9 in West 31.5 mph 31.5 mph 49 % 0.0 in 991.0 W/m2 CLR
13:45 21.7 °F 10.5 °F 1019.9 in WSW 35.4 mph 35.4 mph 49 % 0.0 in 366.0 W/m2 CLR
13:50 21.7 °F 10.8 °F 1019.9 in SW 31.5 mph 31.5 mph 50 % 0.0 in 563.0 W/m2 CLR
13:55 21.7 °F 10.8 °F 1019.9 in SSW 29.6 mph 29.6 mph 50 % 0.0 in 350.0 W/m2 CLR
14:00 21.1 °F 10.3 °F 1019.9 in West 32.2 mph 32.2 mph 50 % 0.0 in 420.0 W/m2 CLR
14:05 22.2 °F 11.3 °F 1019.9 in West 33.3 mph 33.3 mph 50 % 0.0 in 861.0 W/m2 CLR
14:10 22.8 °F 11.8 °F 1019.9 in WSW 27.4 mph 27.4 mph 50 % 0.0 in 967.0 W/m2 CLR
14:15 23.3 °F 11.7 °F 1019.9 in WSW 33.3 mph 33.3 mph 48 % 0.0 in 898.0 W/m2 CLR
14:20 23.9 °F 11.9 °F 1019.5 in SSW 33.8 mph 33.8 mph 47 % 0.0 in 814.0 W/m2 CLR
14:25 23.3 °F 11.4 °F 1019.5 in SW 27.8 mph 27.8 mph 47 % 0.0 in 738.0 W/m2 CLR
14:30 22.8 °F 10.9 °F 1019.5 in SSW 35.2 mph 35.2 mph 47 % 0.0 in 497.0 W/m2 CLR
14:35 23.3 °F 11.7 °F 1019.5 in SW 22.2 mph 22.2 mph 48 % 0.0 in 773.0 W/m2 CLR
14:40 23.3 °F 11.1 °F 1019.5 in WSW 31.5 mph 31.5 mph 46 % 0.0 in 735.0 W/m2 CLR
14:41 23.3 °F 11.1 °F 1019.5 in West 37.0 mph 37.0 mph 46 % 0.0 in 735.0 W/m2 CLR
14:46 23.9 °F 11.6 °F 1019.5 in West 37.0 mph 37.0 mph 46 % 0.0 in 810.0 W/m2 CLR
14:51 23.3 °F 11.1 °F 1019.5 in West 33.3 mph 33.3 mph 46 % 0.0 in 800.0 W/m2 CLR
14:56 23.9 °F 11.2 °F 1019.9 in WSW 31.5 mph 31.5 mph 45 % 0.0 in 800.0 W/m2 CLR
15:01 23.9 °F 11.6 °F 1019.9 in WSW 33.3 mph 33.3 mph 46 % 0.0 in 786.0 W/m2 CLR
15:06 23.9 °F 11.2 °F 1019.9 in WSW 31.5 mph 31.5 mph 45 % 0.0 in 770.0 W/m2 CLR
15:11 23.9 °F 10.9 °F 1019.9 in WSW 31.5 mph 31.5 mph 44 % 0.0 in 761.0 W/m2 CLR
15:16 23.9 °F 11.2 °F 1019.9 in WSW 33.3 mph 33.3 mph 45 % 0.0 in 752.0 W/m2 CLR
15:21 23.9 °F 11.2 °F 1019.5 in WSW 31.5 mph 31.5 mph 45 % 0.0 in 747.0 W/m2 CLR
15:26 23.9 °F 10.9 °F 1019.9 in SW 42.6 mph 42.6 mph 44 % 0.0 in 744.0 W/m2 CLR
15:31 23.9 °F 10.9 °F 1019.5 in SW 25.9 mph 25.9 mph 44 % 0.0 in 724.0 W/m2 CLR
15:36 23.9 °F 10.9 °F 1019.5 in WSW 37.0 mph 37.0 mph 44 % 0.0 in 719.0 W/m2 CLR
15:41 23.9 °F 10.9 °F 1019.5 in WSW 40.7 mph 40.7 mph 44 % 0.0 in 712.0 W/m2 CLR
15:46 24.4 °F 11.4 °F 1019.5 in WSW 37.0 mph 37.0 mph 44 % 0.0 in 705.0 W/m2 CLR
15:51 24.4 °F 11.4 °F 1019.5 in SW 33.3 mph 33.3 mph 44 % 0.0 in 694.0 W/m2 CLR
15:56 23.9 °F 11.2 °F 1019.5 in WSW 20.4 mph 20.4 mph 45 % 0.0 in 682.0 W/m2 CLR
16:01 23.9 °F 10.9 °F 1019.5 in WSW 37.0 mph 37.0 mph 44 % 0.0 in 675.0 W/m2 CLR
16:06 23.9 °F 11.2 °F 1019.5 in WSW 31.5 mph 31.5 mph 45 % 0.0 in 664.0 W/m2 CLR
16:11 23.3 °F 10.4 °F 1019.5 in West 41.8 mph 41.8 mph 44 % 0.0 in 654.0 W/m2 CLR
16:16 23.9 °F 10.6 °F 1019.9 in WSW 33.8 mph 33.8 mph 43 % 0.0 in 643.0 W/m2 CLR
16:21 23.9 °F 10.9 °F 1019.9 in West 35.2 mph 35.2 mph 44 % 0.0 in 633.0 W/m2 CLR
16:26 23.9 °F 10.2 °F 1019.9 in SW 35.2 mph 35.2 mph 42 % 0.0 in 624.0 W/m2 CLR
16:31 23.9 °F 10.2 °F 1019.9 in WSW 40.7 mph 40.7 mph 42 % 0.0 in 613.0 W/m2 CLR
16:36 23.9 °F 9.8 °F 1019.9 in West 40.7 mph 40.7 mph 41 % 0.0 in 601.0 W/m2 CLR
16:41 24.4 °F 10.3 °F 1019.5 in WSW 30.6 mph 30.6 mph 41 % 0.0 in 589.0 W/m2 CLR
16:46 23.9 °F 10.2 °F 1019.5 in WSW 31.5 mph 31.5 mph 42 % 0.0 in 575.0 W/m2 CLR
16:51 24.4 °F 10.3 °F 1019.5 in West 31.5 mph 31.5 mph 41 % 0.0 in 564.0 W/m2 CLR
16:56 24.4 °F 10.3 °F 1019.5 in SW 37.0 mph 37.0 mph 41 % 0.0 in 548.0 W/m2 CLR
17:01 23.9 °F 9.8 °F 1019.5 in WSW 31.5 mph 31.5 mph 41 % 0.0 in 536.0 W/m2 CLR
17:11 24.4 °F 10.3 °F 1019.5 in SW 33.3 mph 33.3 mph 41 % 0.0 in 508.0 W/m2 CLR
17:16 23.9 °F 9.8 °F 1019.5 in West 42.6 mph 42.6 mph 41 % 0.0 in 496.0 W/m2 CLR
17:21 24.4 °F 9.9 °F 1019.5 in WSW 37.0 mph 37.0 mph 40 % 0.0 in 480.0 W/m2 CLR
17:26 24.4 °F 10.3 °F 1019.5 in SW 35.2 mph 35.2 mph 41 % 0.0 in 468.0 W/m2 CLR
17:31 23.9 °F 9.4 °F 1019.5 in West 43.4 mph 43.4 mph 40 % 0.0 in 450.0 W/m2 CLR
17:36 23.9 °F 9.4 °F 1019.5 in WSW 31.5 mph 31.5 mph 40 % 0.0 in 439.0 W/m2 CLR
17:41 23.9 °F 9.8 °F 1019.2 in WSW 24.1 mph 24.1 mph 41 % 0.0 in 418.0 W/m2 CLR
17:46 23.9 °F 9.1 °F 1019.5 in West 40.7 mph 40.7 mph 39 % 0.0 in 406.0 W/m2 CLR
17:52 23.9 °F 8.7 °F 1019.5 in West 29.6 mph 29.6 mph 38 % 0.0 in 392.0 W/m2 CLR
17:57 23.9 °F 9.1 °F 1019.5 in West 33.3 mph 33.3 mph 39 % 0.0 in 374.0 W/m2 CLR
18:02 23.9 °F 9.4 °F 1019.5 in WSW 27.8 mph 27.8 mph 40 % 0.0 in 359.0 W/m2 CLR
18:07 23.9 °F 9.4 °F 1019.5 in West 22.5 mph 22.5 mph 40 % 0.0 in 343.0 W/m2 CLR
18:12 23.9 °F 9.4 °F 1019.5 in WSW 35.4 mph 35.4 mph 40 % 0.0 in 329.0 W/m2 CLR
18:17 23.9 °F 9.8 °F 1019.5 in SW 31.5 mph 31.5 mph 41 % 0.0 in 309.0 W/m2 CLR
18:18 23.9 °F 9.8 °F 1019.5 in West 31.5 mph 31.5 mph 41 % 0.0 in 306.0 W/m2 CLR
18:23 23.9 °F 9.8 °F 1019.5 in SW 27.8 mph 27.8 mph 41 % 0.0 in 290.0 W/m2 CLR
18:28 23.3 °F 9.3 °F 1019.5 in WSW 25.7 mph 25.7 mph 41 % 0.0 in 274.0 W/m2 CLR
18:33 23.3 °F 9.3 °F 1019.5 in West 29.6 mph 29.6 mph 41 % 0.0 in 262.0 W/m2 CLR
18:38 23.3 °F 9.3 °F 1019.5 in SW 18.5 mph 18.5 mph 41 % 0.0 in 241.0 W/m2 CLR
18:43 22.8 °F 8.8 °F 1019.9 in WSW 33.3 mph 33.3 mph 41 % 0.0 in 220.0 W/m2 CLR
18:48 23.3 °F 9.3 °F 1019.9 in West 24.1 mph 24.1 mph 41 % 0.0 in 207.0 W/m2 CLR
18:53 22.8 °F 8.8 °F 1019.5 in West 35.2 mph 35.2 mph 41 % 0.0 in 193.0 W/m2 CLR
18:58 22.8 °F 8.8 °F 1019.9 in West 29.6 mph 29.6 mph 41 % 0.0 in 174.0 W/m2 CLR
19:03 22.8 °F 9.2 °F 1019.9 in West 29.6 mph 29.6 mph 42 % 0.0 in 141.0 W/m2 CLR
19:08 22.2 °F 8.7 °F 1019.9 in WSW 24.1 mph 24.1 mph 42 % 0.0 in 109.0 W/m2 CLR
19:13 22.2 °F 9.1 °F 1019.9 in West 22.2 mph 22.2 mph 43 % 0.0 in 107.0 W/m2 CLR
19:18 22.2 °F 9.1 °F 1019.9 in West 25.9 mph 25.9 mph 43 % 0.0 in 97.0 W/m2 CLR
19:23 22.2 °F 9.1 °F 1019.9 in West 25.9 mph 25.9 mph 43 % 0.0 in 70.0 W/m2 FEW
19:28 22.2 °F 9.1 °F 1019.9 in WSW 31.5 mph 31.5 mph 43 % 0.0 in 49.0 W/m2 SCT
19:33 21.7 °F 8.9 °F 1019.9 in WSW 14.8 mph 14.8 mph 44 % 0.0 in 42.0 W/m2 BKN
19:38 21.7 °F 8.6 °F 1020.2 in WSW 20.4 mph 20.4 mph 43 % 0.0 in 46.0 W/m2 SCT
19:43 21.7 °F 8.6 °F 1020.2 in West 20.4 mph 20.4 mph 43 % 0.0 in 32.0 W/m2 BKN
19:48 21.7 °F 8.6 °F 1020.2 in WSW 20.4 mph 20.4 mph 43 % 0.0 in 23.0 W/m2 BKN
19:53 21.1 °F 8.1 °F 1020.2 in West 18.5 mph 18.5 mph 43 % 0.0 in 18.0 W/m2 BKN
19:58 21.1 °F 8.1 °F 1020.2 in West 22.2 mph 22.2 mph 43 % 0.0 in 14.0 W/m2 BKN
20:03 21.1 °F 8.1 °F 1020.5 in WSW 22.5 mph 22.5 mph 43 % 0.0 in 11.0 W/m2 BKN
20:08 21.1 °F 8.4 °F 1020.5 in SW 18.5 mph 18.5 mph 44 % 0.0 in 7.0 W/m2 BKN
20:13 20.6 °F 7.9 °F 1020.5 in SW 18.5 mph 18.5 mph 44 % 0.0 in 5.0 W/m2 OVC
20:18 20.6 °F 7.9 °F 1020.9 in WSW 20.4 mph 20.4 mph 44 % 0.0 in 0.0 W/m2 OVC
20:23 20.6 °F 7.9 °F 1020.9 in WSW 18.5 mph 18.5 mph 44 % 0.0 in 0.0 W/m2 OVC
20:28 20.6 °F 8.2 °F 1020.9 in WSW 20.4 mph 20.4 mph 45 % 0.0 in 0.0 W/m2 CLR
20:33 20.0 °F 7.7 °F 1020.9 in SW 14.8 mph 14.8 mph 45 % 0.0 in 0.0 W/m2 CLR
20:38 19.4 °F 7.2 °F 1021.2 in SW 16.7 mph 16.7 mph 45 % 0.0 in 0.0 W/m2 CLR
20:43 19.4 °F 7.2 °F 1021.2 in SW 14.8 mph 14.8 mph 45 % 0.0 in 0.0 W/m2 CLR
20:48 18.9 °F 6.7 °F 1021.2 in SW 9.7 mph 9.7 mph 45 % 0.0 in 0.0 W/m2 CLR
20:53 18.9 °F 6.7 °F 1021.2 in SW 13.0 mph 13.0 mph 45 % 0.0 in 0.0 W/m2 CLR
20:58 18.9 °F 7.0 °F 1021.2 in SW 16.7 mph 16.7 mph 46 % 0.0 in 0.0 W/m2 CLR
21:03 18.3 °F 6.5 °F 1021.6 in SW 12.9 mph 12.9 mph 46 % 0.0 in 0.0 W/m2 CLR
21:08 18.3 °F 6.5 °F 1021.6 in SW 13.0 mph 13.0 mph 46 % 0.0 in 0.0 W/m2 CLR
21:13 18.3 °F 6.5 °F 1021.6 in SW 9.3 mph 9.3 mph 46 % 0.0 in 0.0 W/m2 CLR
21:18 17.8 °F 6.3 °F 1021.6 in WSW 12.9 mph 12.9 mph 47 % 0.0 in 0.0 W/m2 CLR
21:23 17.8 °F 6.3 °F 1021.9 in WSW 9.7 mph 9.7 mph 47 % 0.0 in 0.0 W/m2 CLR
21:28 17.2 °F 5.8 °F 1021.9 in SW 13.0 mph 13.0 mph 47 % 0.0 in 0.0 W/m2 CLR
21:33 17.2 °F 5.8 °F 1021.9 in Calm     47 % 0.0 in 0.0 W/m2 CLR
21:38 16.7 °F 5.3 °F 1021.9 in Calm     47 % 0.0 in 0.0 W/m2 CLR
21:43 16.1 °F 4.8 °F 1021.9 in Calm     47 % 0.0 in 0.0 W/m2 CLR
21:48 15.6 °F 4.3 °F 1022.2 in Calm     47 % 0.0 in 0.0 W/m2 CLR
21:53 15.0 °F 3.8 °F 1022.2 in Calm     47 % 0.0 in 0.0 W/m2 CLR
21:58 15.0 °F 4.1 °F 1022.2 in Calm     48 % 0.0 in 0.0 W/m2 CLR
22:03 14.4 °F 3.8 °F 1022.2 in Calm     49 % 0.0 in 0.0 W/m2 CLR
22:08 14.4 °F 3.8 °F 1022.2 in Calm     49 % 0.0 in 0.0 W/m2 CLR
22:13 13.9 °F 3.6 °F 1022.6 in Calm     50 % 0.0 in 0.0 W/m2 CLR
22:18 13.9 °F 3.6 °F 1022.6 in Calm     50 % 0.0 in 0.0 W/m2 CLR
22:23 13.3 °F 3.4 °F 1022.6 in SSW 3.7 mph 3.7 mph 51 % 0.0 in 0.0 W/m2 CLR
22:28 13.3 °F 3.4 °F 1022.6 in SSW 5.6 mph 5.6 mph 51 % 0.0 in 0.0 W/m2 CLR
22:33 13.3 °F 3.4 °F 1022.6 in SSW 8.0 mph 8.0 mph 51 % 0.0 in 0.0 W/m2 CLR
22:34 13.3 °F 3.4 °F 1022.9 in South 8.0 mph 8.0 mph 51 % 0.0 in 0.0 W/m2 CLR
22:39 12.8 °F 2.9 °F 1022.6 in South 11.1 mph 11.1 mph 51 % 0.0 in 0.0 W/m2 CLR
22:44 13.9 °F 3.9 °F 1022.9 in South 7.4 mph 7.6 mph 51 % 0.0 in 0.0 W/m2 CLR
22:49 14.4 °F 4.7 °F 1022.9 in South 9.3 mph 9.3 mph 52 % 0.0 in 0.0 W/m2 CLR
22:54 14.4 °F 4.7 °F 1022.9 in South 5.6 mph 5.6 mph 52 % 0.0 in 0.0 W/m2 CLR
22:59 13.9 °F 4.2 °F 1022.9 in Calm     52 % 0.0 in 0.0 W/m2 CLR
23:04 13.9 °F 4.4 °F 1022.9 in Calm     53 % 0.0 in 0.0 W/m2 CLR
23:09 13.9 °F 4.4 °F 1022.9 in SSE 3.7 mph 3.7 mph 53 % 0.0 in 0.0 W/m2 CLR
23:14 13.3 °F 4.5 °F 1022.9 in Calm     55 % 0.0 in 0.0 W/m2 CLR
23:19 13.3 °F 4.7 °F 1023.2 in Calm     56 % 0.0 in 0.0 W/m2 CLR
23:24 12.8 °F 4.4 °F 1023.2 in Calm     57 % 0.0 in 0.0 W/m2 CLR
23:29 12.8 °F 4.7 °F 1023.2 in Calm     58 % 0.0 in 0.0 W/m2 CLR
23:34 12.8 °F 4.9 °F 1023.2 in South 1.9 mph 1.9 mph 59 % 0.0 in 0.0 W/m2 CLR
23:39 12.8 °F 5.2 °F 1023.2 in Calm     60 % 0.0 in 0.0 W/m2 CLR
23:44 12.2 °F 4.7 °F 1023.2 in Calm     60 % 0.0 in 0.0 W/m2 CLR
23:49 12.2 °F 4.9 °F 1023.2 in Calm     61 % 0.0 in 0.0 W/m2 CLR
23:54 12.2 °F 4.9 °F 1023.2 in Calm     61 % 0.0 in 0.0 W/m2 CLR
23:59 12.2 °F 4.9 °F 1023.2 in Calm     61 % 0.0 in 0.0 W/m2 CLR
Lo Temps de Massalio
Compliments of Weather Underground - 1.25 mb